Time;durP1;ratioP1;P1;durP2;ratioP2;P2;SDS_P1;SDS_P2;PMS_P1;PMS_P2;Temp;Humidity;BMP_temperature;BMP_pressure;BME280_temperature;BME280_humidity;BME280_pressure;Samples;Min_cycle;Max_cycle;Signal;HPM_P1;HPM_P2
2024/01/08 00:00:39;;;;;;;4.13;1.15;;;;;;;2.22;68.24;101866.06;5012453;28;20116;-49
2024/01/08 00:03:06;;;;;;;3.08;0.80;;;;;;;2.22;69.00;101863.50;5001817;28;20085;-45
2024/01/08 00:05:38;;;;;;;4.50;1.75;;;;;;;2.22;69.13;101876.28;5013454;28;20050;-51
2024/01/08 00:08:07;;;;;;;1.55;0.73;;;;;;;2.22;68.28;101872.84;5004797;28;20045;-48
2024/01/08 00:10:37;;;;;;;2.95;0.95;;;;;;;2.22;68.55;101871.16;5004331;28;20569;-47
2024/01/08 00:13:04;;;;;;;2.30;1.00;;;;;;;2.20;68.79;101872.75;5004426;28;20068;-47
2024/01/08 00:15:31;;;;;;;4.88;0.70;;;;;;;2.19;67.75;101865.84;5007768;28;20169;-52
2024/01/08 00:17:58;;;;;;;2.33;0.68;;;;;;;2.17;68.85;101867.47;5007757;28;20050;-48
2024/01/08 00:20:25;;;;;;;3.15;1.02;;;;;;;2.16;68.78;101870.81;5006514;28;20120;-50
2024/01/08 00:22:52;;;;;;;2.25;0.57;;;;;;;2.13;69.09;101860.41;5009918;28;20108;-48
2024/01/08 00:25:21;;;;;;;2.55;0.93;;;;;;;2.12;68.33;101863.72;5017085;28;20057;-46
2024/01/08 00:27:50;;;;;;;2.25;1.25;;;;;;;2.10;68.02;101870.44;5010875;28;20478;-48
2024/01/08 00:30:17;;;;;;;2.97;1.42;;;;;;;2.06;68.76;101864.22;5005696;28;20049;-46
2024/01/08 00:32:44;;;;;;;1.30;1.08;;;;;;;2.02;68.33;101865.72;5007259;28;20077;-51
2024/01/08 00:35:12;;;;;;;2.15;0.95;;;;;;;1.99;69.39;101865.53;5013902;28;20048;-51
2024/01/08 00:37:41;;;;;;;4.28;1.85;;;;;;;1.97;68.94;101869.69;5014120;28;20466;-44
2024/01/08 00:40:09;;;;;;;2.05;0.80;;;;;;;1.96;68.09;101867.88;5009364;28;20046;-51
2024/01/08 00:42:38;;;;;;;3.63;0.85;;;;;;;1.94;69.17;101872.03;5014336;28;20057;-48
2024/01/08 00:45:06;;;;;;;1.60;0.85;;;;;;;1.93;68.15;101870.28;5003846;28;20041;-51
2024/01/08 00:47:33;;;;;;;5.47;1.20;;;;;;;1.93;68.38;101872.84;5008043;28;20049;-48
2024/01/08 00:50:01;;;;;;;2.40;0.80;;;;;;;1.92;69.62;101874.50;5007836;28;20057;-44
2024/01/08 00:52:29;;;;;;;1.55;0.68;;;;;;;1.93;68.96;101870.28;5010199;28;20050;-48
2024/01/08 00:55:01;;;;;;;6.97;0.80;;;;;;;1.92;68.69;101871.94;5018818;28;20042;-49
2024/01/08 00:57:28;;;;;;;4.80;1.00;;;;;;;1.94;69.55;101872.03;5008955;28;20053;-49
2024/01/08 00:59:55;;;;;;;3.88;1.27;;;;;;;1.93;69.46;101873.69;5015490;28;20057;-49
2024/01/08 01:02:21;;;;;;;4.30;1.27;;;;;;;1.94;68.92;101869.47;5016652;28;20137;-47
2024/01/08 01:04:48;;;;;;;2.70;0.88;;;;;;;1.96;68.86;101867.88;5017040;28;20105;-50
2024/01/08 01:07:15;;;;;;;2.15;1.08;;;;;;;1.97;69.49;101868.78;5011441;28;20495;-47
2024/01/08 01:09:42;;;;;;;2.75;1.00;;;;;;;1.98;69.68;101865.44;5025199;28;20060;-50
2024/01/08 01:12:10;;;;;;;3.00;0.93;;;;;;;1.98;68.51;101871.44;5013608;28;20064;-46
2024/01/08 01:14:36;;;;;;;2.75;1.20;;;;;;;1.98;68.57;101868.88;5014426;28;20049;-47
2024/01/08 01:17:03;;;;;;;3.53;1.05;;;;;;;1.97;69.20;101869.69;5013296;28;20046;-50
2024/01/08 01:19:30;;;;;;;1.98;0.77;;;;;;;1.98;69.78;101879.09;5017802;28;20053;-49
2024/01/08 01:21:57;;;;;;;5.82;1.40;;;;;;;1.96;69.44;101873.00;5013778;28;20046;-53
2024/01/08 01:24:24;;;;;;;1.83;0.55;;;;;;;1.94;69.46;101869.47;5010882;28;20049;-51
2024/01/08 01:26:50;;;;;;;1.08;0.47;;;;;;;1.92;69.61;101873.59;5013737;28;20042;-48
2024/01/08 01:29:17;;;;;;;2.70;1.92;;;;;;;1.91;69.46;101874.38;5009150;28;20049;-52
2024/01/08 01:31:43;;;;;;;2.38;0.90;;;;;;;1.90;68.81;101867.53;5021774;28;20041;-48
2024/01/08 01:34:11;;;;;;;4.90;1.40;;;;;;;1.89;68.92;101870.88;5011109;28;20046;-44
2024/01/08 01:36:39;;;;;;;3.60;0.68;;;;;;;1.87;69.70;101872.44;5023792;28;20491;-47
2024/01/08 01:39:06;;;;;;;1.90;0.93;;;;;;;1.84;68.65;101872.25;5023156;28;20495;-46
2024/01/08 01:41:33;;;;;;;1.45;0.63;;;;;;;1.85;68.74;101874.00;5019394;28;20048;-48
2024/01/08 01:44:00;;;;;;;3.67;0.70;;;;;;;1.83;69.84;101870.47;5011552;28;20042;-43
2024/01/08 01:46:38;;;;;;;2.53;0.77;;;;;;;1.83;68.81;101875.59;5021826;28;20057;-50
2024/01/08 01:49:07;;;;;;;4.10;0.93;;;;;;;1.80;70.05;101879.72;5011577;28;20042;-48
2024/01/08 01:51:34;;;;;;;1.73;0.95;;;;;;;1.80;69.27;101882.25;5019689;28;20129;-50
2024/01/08 01:54:01;;;;;;;3.30;0.90;;;;;;;1.79;69.13;101877.94;5009320;28;20048;-50
2024/01/08 01:56:27;;;;;;;1.20;0.65;;;;;;;1.77;69.46;101884.66;5011764;28;20042;-49
2024/01/08 01:58:56;;;;;;;4.05;1.30;;;;;;;1.78;69.75;101888.97;5015882;28;20139;-49
2024/01/08 02:01:23;;;;;;;4.28;0.70;;;;;;;1.77;69.13;101879.53;5014248;28;20061;-45
2024/01/08 02:03:51;;;;;;;3.35;1.25;;;;;;;1.79;69.87;101884.75;5032660;28;20132;-48
2024/01/08 02:06:22;;;;;;;2.85;1.00;;;;;;;1.79;69.62;101882.19;5010391;28;20049;-48
2024/01/08 02:08:51;;;;;;;3.78;0.50;;;;;;;1.78;69.29;101882.97;5025205;28;20076;-43
2024/01/08 02:11:19;;;;;;;4.90;1.15;;;;;;;1.77;69.68;101886.31;5012640;28;20050;-51
2024/01/08 02:13:46;;;;;;;4.55;0.88;;;;;;;1.77;69.94;101889.75;5007116;28;20050;-47
2024/01/08 02:16:14;;;;;;;3.22;1.13;;;;;;;1.78;68.81;101888.97;5008877;28;20042;-46
2024/01/08 02:18:41;;;;;;;2.13;1.23;;;;;;;1.78;68.45;101888.97;5006595;28;20507;-49
2024/01/08 02:21:07;;;;;;;1.45;0.80;;;;;;;1.79;68.90;101885.63;5015688;28;20095;-47
2024/01/08 02:23:34;;;;;;;1.45;0.68;;;;;;;1.80;68.60;101892.47;5005325;28;20058;-47
2024/01/08 02:26:01;;;;;;;2.63;0.70;;;;;;;1.79;68.94;101895.84;5022990;28;20565;-54
2024/01/08 02:28:28;;;;;;;2.40;1.05;;;;;;;1.82;68.39;101889.16;5019895;28;20038;-46
2024/01/08 02:30:55;;;;;;;1.77;0.82;;;;;;;1.83;69.46;101891.81;5019247;28;20048;-45
2024/01/08 02:33:22;;;;;;;2.42;1.20;;;;;;;1.85;68.85;101891.88;5017382;28;20046;-46
2024/01/08 02:35:49;;;;;;;2.42;0.85;;;;;;;1.85;69.22;101894.44;5017232;28;20073;-47
2024/01/08 02:38:16;;;;;;;3.08;1.48;;;;;;;1.86;68.22;101896.22;5010792;28;20096;-47
2024/01/08 02:40:43;;;;;;;1.70;0.50;;;;;;;1.83;68.00;101896.94;5000708;28;20178;-46
2024/01/08 02:43:10;;;;;;;1.15;0.63;;;;;;;1.86;67.99;101896.22;5004819;28;20054;-49
2024/01/08 02:45:37;;;;;;;1.27;0.65;;;;;;;1.86;68.24;101906.44;5013996;28;20521;-44
2024/01/08 02:48:04;;;;;;;2.80;0.93;;;;;;;1.85;68.06;101895.34;5021512;28;20054;-50
2024/01/08 02:50:30;;;;;;;6.50;0.95;;;;;;;1.85;68.45;101895.34;5016301;28;20506;-47
2024/01/08 02:52:57;;;;;;;2.55;1.20;;;;;;;1.85;67.92;101899.56;5009386;28;20388;-51
2024/01/08 02:55:24;;;;;;;1.77;0.77;;;;;;;1.86;68.90;101901.34;5017189;28;20081;-48
2024/01/08 02:57:51;;;;;;;2.13;0.98;;;;;;;1.87;68.59;101905.66;5013323;28;20046;-48
2024/01/08 03:00:17;;;;;;;1.45;0.52;;;;;;;1.86;69.22;101898.78;5008656;28;20056;-51
2024/01/08 03:02:44;;;;;;;1.35;0.50;;;;;;;1.86;68.50;101901.34;5016381;28;20376;-48
2024/01/08 03:05:10;;;;;;;1.52;0.57;;;;;;;1.86;68.12;101901.34;5005848;28;20454;-46
2024/01/08 03:07:39;;;;;;;1.85;0.60;;;;;;;1.87;68.39;101905.66;5008269;28;20060;-49
2024/01/08 03:10:06;;;;;;;2.20;1.02;;;;;;;1.87;68.27;101898.88;5008423;28;20129;-56
2024/01/08 03:12:32;;;;;;;1.10;0.52;;;;;;;1.88;68.94;101899.75;5012269;28;20049;-50
2024/01/08 03:14:59;;;;;;;1.45;0.82;;;;;;;1.89;67.37;101906.66;5011827;28;20079;-47
2024/01/08 03:17:26;;;;;;;0.95;0.73;;;;;;;1.89;67.66;101896.44;5001386;28;20046;-47
2024/01/08 03:19:53;;;;;;;1.67;0.82;;;;;;;1.86;68.51;101897.09;5004771;28;20089;-48
2024/01/08 03:22:19;;;;;;;4.97;1.05;;;;;;;1.87;67.60;101904.00;5008223;28;20089;-45
2024/01/08 03:24:46;;;;;;;1.90;0.65;;;;;;;1.85;67.82;101900.44;5012908;28;20056;-49
2024/01/08 03:27:13;;;;;;;2.28;0.32;;;;;;;1.84;68.68;101900.34;5014374;28;20050;-47
2024/01/08 03:29:40;;;;;;;1.10;0.50;;;;;;;1.84;67.99;101892.69;4999467;28;20050;-52
2024/01/08 03:32:09;;;;;;;2.65;0.65;;;;;;;1.84;67.51;101902.91;5009917;28;20065;-46
2024/01/08 03:34:35;;;;;;;3.45;0.90;;;;;;;1.84;68.38;101900.34;5007605;28;20049;-45
2024/01/08 03:37:03;;;;;;;0.90;0.40;;;;;;;1.85;68.09;101894.44;5015649;28;20065;-52
2024/01/08 03:39:30;;;;;;;2.15;0.75;;;;;;;1.86;68.37;101901.34;5002822;28;20050;-47
2024/01/08 03:41:57;;;;;;;1.33;0.52;;;;;;;1.85;68.38;101895.34;5010484;28;20041;-46
2024/01/08 03:44:23;;;;;;;0.98;0.65;;;;;;;1.85;67.82;101899.56;5008708;28;20454;-46
2024/01/08 03:46:51;;;;;;;3.80;1.13;;;;;;;1.86;67.67;101907.31;5008919;28;20073;-47
2024/01/08 03:49:18;;;;;;;5.68;0.85;;;;;;;1.86;68.60;101903.91;5005545;28;20053;-55
2024/01/08 03:51:45;;;;;;;1.77;0.70;;;;;;;1.85;68.29;101904.66;5006073;28;20045;-52
2024/01/08 03:54:12;;;;;;;1.35;0.65;;;;;;;1.85;67.73;101910.66;5013603;28;20667;-50
2024/01/08 03:56:39;;;;;;;0.73;0.52;;;;;;;1.85;68.75;101915.78;5013575;28;20045;-48
2024/01/08 03:59:06;;;;;;;1.45;0.90;;;;;;;1.85;67.44;101909.78;5007362;28;20072;-50
2024/01/08 04:01:33;;;;;;;2.50;0.70;;;;;;;1.87;68.60;101911.66;4995820;28;20120;-54
2024/01/08 04:04:01;;;;;;;1.77;0.50;;;;;;;1.87;69.06;101914.22;5005380;28;20503;-50
2024/01/08 04:06:28;;;;;;;1.33;0.60;;;;;;;1.88;67.77;101927.84;5003286;28;20061;-50
2024/01/08 04:08:54;;;;;;;2.83;1.23;;;;;;;1.88;67.67;101907.41;5014159;28;20077;-52
2024/01/08 04:11:21;;;;;;;1.60;0.40;;;;;;;1.87;69.09;101913.31;5011921;28;20045;-46
2024/01/08 04:13:49;;;;;;;2.60;0.60;;;;;;;1.87;68.69;101926.09;5017373;28;20042;-50
2024/01/08 04:16:16;;;;;;;0.90;0.50;;;;;;;1.88;68.13;101927.84;5008218;28;20179;-45
2024/01/08 04:18:42;;;;;;;1.70;1.00;;;;;;;1.88;68.15;101930.41;5003793;28;20060;-47
2024/01/08 04:21:09;;;;;;;3.00;0.95;;;;;;;1.89;67.67;101924.53;5013250;28;20592;-49
2024/01/08 04:23:36;;;;;;;3.15;0.77;;;;;;;1.87;68.37;101924.44;5006044;28;20053;-49
2024/01/08 04:26:04;;;;;;;1.23;0.60;;;;;;;1.89;69.00;101927.09;5009685;28;20062;-49
2024/01/08 04:28:31;;;;;;;1.13;0.98;;;;;;;1.90;68.13;101928.84;5007480;28;20064;-52
2024/01/08 04:30:57;;;;;;;1.50;1.20;;;;;;;1.89;67.75;101932.22;5010287;28;20522;-48
2024/01/08 04:33:24;;;;;;;1.63;0.85;;;;;;;1.89;68.42;101927.09;5021593;28;20062;-53
2024/01/08 04:35:51;;;;;;;1.20;0.70;;;;;;;1.90;68.64;101928.84;5010971;28;20060;-46
2024/01/08 04:38:18;;;;;;;1.10;0.45;;;;;;;1.90;68.58;101928.84;5012629;28;20053;-48
2024/01/08 04:40:44;;;;;;;3.72;0.70;;;;;;;1.90;69.08;101929.72;5014556;28;20048;-47
2024/01/08 04:43:11;;;;;;;3.53;0.55;;;;;;;1.91;68.94;101930.63;5011955;28;20453;-47
2024/01/08 04:45:38;;;;;;;2.78;0.82;;;;;;;1.92;68.40;101934.94;5019291;28;20046;-49
2024/01/08 04:48:05;;;;;;;2.65;1.13;;;;;;;1.92;68.90;101929.81;5015455;28;20438;-50
2024/01/08 04:50:31;;;;;;;4.50;0.88;;;;;;;1.92;68.31;101928.16;5016729;28;20052;-51
2024/01/08 04:52:58;;;;;;;2.00;0.70;;;;;;;1.92;67.91;101929.81;5013056;28;20049;-56
2024/01/08 04:55:25;;;;;;;2.53;0.93;;;;;;;1.93;69.14;101931.63;5006765;28;20063;-46
2024/01/08 04:57:51;;;;;;;1.38;0.40;;;;;;;1.93;69.22;101936.72;5012149;28;20049;-47
2024/01/08 05:00:18;;;;;;;4.32;0.73;;;;;;;1.92;68.88;101935.81;5014408;28;20049;-45
2024/01/08 05:02:45;;;;;;;4.25;1.00;;;;;;;1.92;68.26;101937.50;5017282;28;20060;-44
2024/01/08 05:05:12;;;;;;;0.88;0.60;;;;;;;1.90;68.22;101944.19;5006630;28;20065;-48
2024/01/08 05:07:40;;;;;;;1.27;0.95;;;;;;;1.90;68.72;101950.16;5007859;28;20049;-43
2024/01/08 05:10:08;;;;;;;1.33;0.60;;;;;;;1.90;67.75;101933.97;5016845;28;20046;-47
2024/01/08 05:12:35;;;;;;;5.32;0.60;;;;;;;1.89;68.13;101938.19;5007383;28;20052;-48
2024/01/08 05:15:03;;;;;;;1.20;0.68;;;;;;;1.90;67.87;101933.97;5019144;28;20054;-46
2024/01/08 05:17:29;;;;;;;2.45;0.95;;;;;;;1.90;68.44;101933.97;5020553;28;20046;-47
2024/01/08 05:19:58;;;;;;;0.95;0.85;;;;;;;1.90;68.45;101941.63;5013586;28;20046;-46
2024/01/08 05:22:25;;;;;;;2.10;0.45;;;;;;;1.89;68.62;101938.19;5009689;28;20053;-50
2024/01/08 05:24:51;;;;;;;1.67;0.75;;;;;;;1.90;68.39;101939.09;5016440;28;20049;-48
2024/01/08 05:27:18;;;;;;;3.47;0.80;;;;;;;1.91;68.74;101938.28;5008883;28;20049;-48
2024/01/08 05:29:45;;;;;;;2.10;0.63;;;;;;;1.88;67.96;101940.63;5006193;28;20046;-51
2024/01/08 05:32:11;;;;;;;1.83;0.68;;;;;;;1.90;68.42;101932.28;5001503;28;20101;-48
2024/01/08 05:34:38;;;;;;;3.30;1.48;;;;;;;1.90;67.74;101939.09;5009283;28;20141;-48
2024/01/08 05:37:06;;;;;;;2.83;0.80;;;;;;;1.90;68.76;101934.84;5007369;28;20050;-44
2024/01/08 05:39:34;;;;;;;1.77;0.80;;;;;;;1.90;69.42;101941.63;5015789;28;20050;-50
2024/01/08 05:42:01;;;;;;;3.78;0.90;;;;;;;1.90;68.62;101944.19;5014579;28;20069;-50
2024/01/08 05:44:28;;;;;;;2.38;0.65;;;;;;;1.89;68.57;101942.44;5011058;28;20056;-49
2024/01/08 05:46:54;;;;;;;1.10;0.52;;;;;;;1.91;69.34;101945.94;4997767;28;20057;-46
2024/01/08 05:49:21;;;;;;;2.75;0.95;;;;;;;1.91;68.53;101930.63;5013612;28;20100;-53
2024/01/08 05:51:48;;;;;;;1.88;0.85;;;;;;;1.91;68.21;101934.06;5015492;28;20053;-44
2024/01/08 05:54:14;;;;;;;1.58;0.52;;;;;;;1.89;68.52;101932.22;5011452;28;20061;-43
2024/01/08 05:56:41;;;;;;;1.23;0.32;;;;;;;1.91;69.50;101930.63;5015584;28;20532;-49
2024/01/08 05:59:08;;;;;;;1.90;0.93;;;;;;;1.91;69.48;101935.72;5015232;28;20072;-49
2024/01/08 06:01:36;;;;;;;3.00;1.23;;;;;;;1.93;69.55;101936.72;5014670;28;20046;-53
2024/01/08 06:04:04;;;;;;;1.98;0.70;;;;;;;1.92;69.49;101933.28;5007929;28;20054;-53
2024/01/08 06:06:31;;;;;;;2.40;0.68;;;;;;;1.95;69.43;101939.38;5015204;28;20058;-46
2024/01/08 06:08:58;;;;;;;4.43;0.88;;;;;;;1.93;68.53;101929.91;5011432;28;20132;-49
2024/01/08 06:11:25;;;;;;;1.33;0.93;;;;;;;1.93;69.59;101923.94;5004118;28;20053;-46
2024/01/08 06:13:54;;;;;;;0.90;0.52;;;;;;;1.94;68.55;101925.69;5008864;28;20073;-47
2024/01/08 06:16:20;;;;;;;1.52;0.57;;;;;;;1.93;69.42;101923.94;5004573;28;20078;-48
2024/01/08 06:18:47;;;;;;;2.30;0.57;;;;;;;1.94;69.88;101925.69;5004500;28;20415;-47
2024/01/08 06:21:14;;;;;;;2.55;0.63;;;;;;;1.95;69.23;101921.50;5009887;28;20126;-48
2024/01/08 06:23:40;;;;;;;4.40;0.75;;;;;;;1.94;68.53;101920.59;5008897;28;20050;-51
2024/01/08 06:26:08;;;;;;;1.40;0.50;;;;;;;1.93;69.16;101919.69;5015269;28;20052;-51
2024/01/08 06:28:34;;;;;;;1.58;0.65;;;;;;;1.96;68.75;101931.78;5009795;28;20064;-47
2024/01/08 06:31:04;;;;;;;4.03;0.70;;;;;;;1.96;68.80;101924.13;5013019;28;20041;-47
2024/01/08 06:33:34;;;;;;;2.50;0.70;;;;;;;1.96;69.81;101928.34;5026588;28;20056;-46
2024/01/08 06:36:01;;;;;;;1.60;0.57;;;;;;;1.96;69.27;101930.91;5010838;28;20068;-46
2024/01/08 06:38:28;;;;;;;1.25;0.73;;;;;;;1.97;69.10;101930.13;5017505;28;20056;-49
2024/01/08 06:40:56;;;;;;;6.07;0.63;;;;;;;1.95;68.57;101937.69;5019943;28;20056;-48
2024/01/08 06:43:22;;;;;;;2.00;0.80;;;;;;;1.96;68.93;101928.34;5021163;28;20116;-49
2024/01/08 06:45:49;;;;;;;2.15;0.70;;;;;;;1.96;68.93;101928.34;5004162;28;20133;-46
2024/01/08 06:48:16;;;;;;;1.20;0.82;;;;;;;1.96;69.54;101926.66;5014208;28;20072;-50
2024/01/08 06:50:43;;;;;;;1.17;0.68;;;;;;;1.96;68.23;101929.22;5016203;28;20046;-45
2024/01/08 06:53:10;;;;;;;1.63;0.73;;;;;;;1.97;69.42;101932.69;5011147;28;20054;-48
2024/01/08 06:55:36;;;;;;;2.35;0.45;;;;;;;1.98;68.50;101927.66;5009652;28;20168;-47
2024/01/08 06:58:03;;;;;;;1.45;1.00;;;;;;;1.98;69.18;101927.66;5000745;28;20046;-53
2024/01/08 07:00:30;;;;;;;3.95;1.70;;;;;;;1.98;68.92;101927.66;5017735;28;20465;-44
2024/01/08 07:02:57;;;;;;;1.83;0.50;;;;;;;1.99;68.81;101929.41;5018712;28;20045;-46
2024/01/08 07:05:23;;;;;;;1.13;0.90;;;;;;;2.00;68.50;101930.31;5003290;28;20068;-50
2024/01/08 07:07:52;;;;;;;1.10;0.80;;;;;;;2.01;67.89;101926.97;5001193;28;20050;-48
2024/01/08 07:10:18;;;;;;;3.88;0.93;;;;;;;2.02;68.33;101933.84;5002713;28;20087;-48
2024/01/08 07:12:46;;;;;;;4.93;0.85;;;;;;;2.02;67.98;101929.63;5009234;28;20053;-44
2024/01/08 07:15:48;;;;;;;2.88;1.13;;;;;;;2.00;68.51;101926.09;5007291;28;20050;-54
2024/01/08 07:18:16;;;;;;;1.55;0.50;;;;;;;2.02;68.91;101928.72;5005657;28;20045;-51
2024/01/08 07:20:43;;;;;;;3.28;0.50;;;;;;;2.03;68.34;101926.28;5013705;28;20100;-48
2024/01/08 07:23:12;;;;;;;2.13;0.50;;;;;;;2.05;68.49;101934.94;5004830;28;20047;-49
2024/01/08 07:25:41;;;;;;;3.42;1.25;;;;;;;2.06;68.98;101930.69;5002378;28;20495;-48
2024/01/08 07:28:10;;;;;;;1.02;0.60;;;;;;;2.05;68.21;101929.81;5006636;28;20064;-55
2024/01/08 07:30:38;;;;;;;3.83;0.35;;;;;;;2.04;68.24;101933.19;5019706;28;20060;-48
2024/01/08 07:33:06;;;;;;;0.40;0.20;;;;;;;2.05;68.18;101924.72;5013745;28;20053;-47
2024/01/08 07:35:34;;;;;;;1.05;0.40;;;;;;;2.04;68.68;101915.28;5004056;28;20132;-50
2024/01/08 07:38:01;;;;;;;2.30;0.63;;;;;;;2.07;68.08;101921.34;4999143;28;20046;-49
2024/01/08 07:40:27;;;;;;;3.60;1.15;;;;;;;2.07;68.26;101926.47;5001208;28;20137;-56
2024/01/08 07:42:57;;;;;;;1.20;0.68;;;;;;;2.07;67.65;101932.47;5014543;28;20050;-49
2024/01/08 07:45:26;;;;;;;2.78;1.13;;;;;;;2.08;67.34;101928.22;4997712;28;20058;-49
2024/01/08 07:47:54;;;;;;;0.70;0.30;;;;;;;2.05;67.80;101929.81;4997523;28;20085;-51
2024/01/08 07:50:21;;;;;;;1.88;0.77;;;;;;;2.07;67.58;101931.56;4993719;28;20053;-45
2024/01/08 07:52:48;;;;;;;0.85;0.40;;;;;;;2.07;67.44;101927.38;5001305;28;20042;-53
2024/01/08 07:55:16;;;;;;;1.48;0.60;;;;;;;2.08;68.13;101934.22;5000260;28;20060;-48
2024/01/08 07:57:42;;;;;;;1.10;0.57;;;;;;;2.09;67.92;101927.47;5003133;28;20077;-45
2024/01/08 08:00:11;;;;;;;4.43;0.40;;;;;;;2.10;67.85;101934.34;4999465;28;20514;-46
2024/01/08 08:02:39;;;;;;;1.17;0.73;;;;;;;2.10;67.90;101931.78;5000110;28;20053;-46
2024/01/08 08:05:06;;;;;;;1.30;1.13;;;;;;;2.09;66.89;101925.78;5004757;28;20137;-45
2024/01/08 08:07:35;;;;;;;0.68;0.60;;;;;;;2.10;67.33;101929.22;5007411;28;20065;-48
2024/01/08 08:10:02;;;;;;;3.80;0.50;;;;;;;2.11;66.84;101923.31;5004526;28;20062;-49
2024/01/08 08:12:30;;;;;;;1.17;0.40;;;;;;;2.11;67.72;101920.75;5002579;28;20064;-49
2024/01/08 08:14:58;;;;;;;1.00;0.47;;;;;;;2.11;67.23;101915.63;5004081;28;20060;-45
2024/01/08 08:17:26;;;;;;;2.08;0.77;;;;;;;2.10;67.08;101921.56;4997735;28;20058;-45
2024/01/08 08:19:55;;;;;;;2.33;0.50;;;;;;;2.08;67.61;101913.78;5002423;28;20045;-47
2024/01/08 08:22:22;;;;;;;3.67;0.75;;;;;;;2.10;66.90;101922.44;5006035;28;20132;-51
2024/01/08 08:24:48;;;;;;;1.90;0.68;;;;;;;2.08;67.09;101918.00;5001790;28;20077;-46
2024/01/08 08:27:15;;;;;;;2.25;0.50;;;;;;;2.07;67.37;101935.03;5002576;28;20482;-51
2024/01/08 08:29:43;;;;;;;4.32;1.42;;;;;;;2.07;66.82;101931.56;5002163;28;20046;-51
2024/01/08 08:32:11;;;;;;;1.85;0.65;;;;;;;2.05;67.29;101927.25;5007261;28;20129;-56
2024/01/08 08:34:39;;;;;;;1.13;0.95;;;;;;;2.04;66.67;101928.06;4997233;28;20046;-46
2024/01/08 08:37:08;;;;;;;1.63;0.68;;;;;;;2.07;67.77;101934.13;5004299;28;20081;-49
2024/01/08 08:39:36;;;;;;;0.60;0.30;;;;;;;2.04;66.43;101938.28;5000155;28;20050;-48
2024/01/08 08:42:04;;;;;;;2.65;1.00;;;;;;;2.07;67.10;101941.81;5005381;28;20046;-46
2024/01/08 08:44:31;;;;;;;0.63;0.35;;;;;;;2.06;67.08;101935.78;5005033;28;20068;-49
2024/01/08 08:46:58;;;;;;;1.27;0.30;;;;;;;2.07;66.52;101946.91;5000920;28;20053;-47
2024/01/08 08:49:26;;;;;;;1.38;0.40;;;;;;;2.08;67.53;101948.69;5009858;28;20141;-49
2024/01/08 08:51:56;;;;;;;1.05;0.50;;;;;;;2.08;66.60;101956.34;5009416;28;20089;-48
2024/01/08 08:54:23;;;;;;;4.07;1.17;;;;;;;2.09;67.71;101960.69;5006331;28;20050;-49
2024/01/08 08:56:50;;;;;;;1.40;0.77;;;;;;;2.08;67.34;101970.03;5005429;28;20053;-46
2024/01/08 08:59:16;;;;;;;1.60;0.77;;;;;;;2.09;67.09;101971.78;5014224;28;20054;-52
2024/01/08 09:01:43;;;;;;;2.85;1.48;;;;;;;2.11;66.44;101971.88;5010496;28;20081;-54
2024/01/08 09:04:10;;;;;;;4.80;1.10;;;;;;;2.11;67.01;101977.00;5005351;28;20069;-48
2024/01/08 09:06:37;;;;;;;1.60;0.40;;;;;;;2.12;66.74;101977.09;5003717;28;20539;-48
2024/01/08 09:09:05;;;;;;;1.17;0.57;;;;;;;2.14;66.92;101983.22;5007499;28;20415;-48
2024/01/08 09:11:32;;;;;;;0.98;0.68;;;;;;;2.17;67.23;101980.81;5016273;28;20050;-43
2024/01/08 09:13:59;;;;;;;0.68;0.43;;;;;;;2.18;67.35;101986.81;4999227;28;20065;-47
2024/01/08 09:16:26;;;;;;;1.65;0.40;;;;;;;2.17;67.26;101985.06;5009133;28;20054;-53
2024/01/08 09:18:53;;;;;;;1.10;0.70;;;;;;;2.18;66.40;101991.94;5008586;28;20038;-45
2024/01/08 09:21:20;;;;;;;1.27;1.08;;;;;;;2.18;66.62;101984.28;5005701;28;20058;-46
2024/01/08 09:23:46;;;;;;;1.58;0.80;;;;;;;2.23;66.59;101993.09;5006629;28;20050;-45
2024/01/08 09:26:13;;;;;;;0.88;0.55;;;;;;;2.23;67.39;101994.78;5002659;28;20591;-50
2024/01/08 09:28:40;;;;;;;1.10;0.68;;;;;;;2.26;66.55;101989.88;5006677;28;20056;-47
2024/01/08 09:31:07;;;;;;;1.10;0.60;;;;;;;2.27;67.87;101997.63;5006640;28;20064;-50
2024/01/08 09:33:34;;;;;;;5.80;0.77;;;;;;;2.29;66.85;101985.84;5010265;28;20133;-46
2024/01/08 09:36:01;;;;;;;2.00;0.60;;;;;;;2.30;67.75;101995.25;5007994;28;20570;-50
2024/01/08 09:38:27;;;;;;;2.00;0.50;;;;;;;2.31;67.43;101998.72;5003676;28;20045;-54
2024/01/08 09:40:55;;;;;;;5.85;0.93;;;;;;;2.34;67.29;102000.56;5010272;28;20141;-45
2024/01/08 09:43:34;;;;;;;4.45;0.88;;;;;;;2.31;66.92;102004.72;5022829;28;20053;-50
2024/01/08 09:46:06;;;;;;;1.02;0.52;;;;;;;2.34;67.20;101998.00;5002350;28;20633;-46
2024/01/08 09:48:34;;;;;;;2.95;0.50;;;;;;;2.35;68.02;102005.78;5005024;28;20049;-47
2024/01/08 09:51:02;;;;;;;2.58;0.60;;;;;;;2.36;67.84;102006.69;5004964;28;20049;-43
2024/01/08 09:53:30;;;;;;;1.05;0.50;;;;;;;2.36;67.62;102007.56;5018957;28;20046;-47
2024/01/08 09:55:58;;;;;;;3.60;0.60;;;;;;;2.35;67.46;102016.03;5003639;28;20046;-48
2024/01/08 09:58:25;;;;;;;1.40;0.68;;;;;;;2.36;67.64;102011.81;5006894;28;20050;-45
2024/01/08 10:00:53;;;;;;;1.60;0.60;;;;;;;2.35;67.52;102015.13;5006151;28;20049;-48
2024/01/08 10:03:20;;;;;;;1.90;0.98;;;;;;;2.37;66.72;102014.47;5009670;28;20140;-53
2024/01/08 10:05:50;;;;;;;3.47;1.15;;;;;;;2.40;67.02;102006.09;5009917;28;20101;-47
2024/01/08 10:08:17;;;;;;;3.25;1.42;;;;;;;2.40;68.02;102008.66;5009637;28;20132;-50
2024/01/08 10:10:45;;;;;;;2.25;1.05;;;;;;;2.42;67.42;102017.28;5005135;28;20078;-53
2024/01/08 10:13:12;;;;;;;3.10;0.73;;;;;;;2.43;67.35;102025.06;5005628;28;20213;-45
2024/01/08 10:15:39;;;;;;;4.55;0.85;;;;;;;2.41;67.29;102020.63;5006462;28;20053;-46
2024/01/08 10:18:08;;;;;;;2.00;0.65;;;;;;;2.42;66.51;102022.41;5003252;28;20046;-53
2024/01/08 10:20:36;;;;;;;1.52;0.82;;;;;;;2.41;66.40;102018.97;4998511;28;20521;-49
2024/01/08 10:23:06;;;;;;;1.45;0.85;;;;;;;2.38;66.89;102023.88;5005343;28;20104;-47
2024/01/08 10:25:35;;;;;;;1.63;0.60;;;;;;;2.36;66.77;102022.03;5023164;28;20050;-47
2024/01/08 10:28:02;;;;;;;13.75;0.88;;;;;;;2.36;66.99;102028.00;5002586;28;20419;-52
2024/01/08 10:30:29;;;;;;;1.85;0.57;;;;;;;2.37;67.03;102028.91;4996601;28;20046;-45
2024/01/08 10:32:59;;;;;;;5.15;0.55;;;;;;;2.37;66.31;102024.69;5000451;28;20054;-51
2024/01/08 10:35:28;;;;;;;;;;;;;;;2.34;66.40;102028.72;5006997;28;20061;-48
2024/01/08 10:37:59;;;;;;;0.63;0.32;;;;;;;2.36;67.56;102022.03;4999621;28;19925;-47
2024/01/08 10:40:29;;;;;;;1.45;0.60;;;;;;;2.39;66.82;102022.19;5004138;28;20103;-47
2024/01/08 10:42:56;;;;;;;3.40;1.85;;;;;;;2.38;66.62;102016.22;5002456;28;20140;-49
2024/01/08 10:45:23;;;;;;;1.52;0.90;;;;;;;2.38;66.87;102015.31;5004887;28;20050;-48
2024/01/08 10:47:56;;;;;;;2.38;0.88;;;;;;;2.38;67.10;102012.75;5001382;28;20125;-52
2024/01/08 10:50:24;;;;;;;4.90;0.80;;;;;;;2.40;67.00;102006.09;5021188;28;20675;-50
2024/01/08 10:52:56;;;;;;;1.55;0.70;;;;;;;2.43;66.83;102009.72;5000101;28;20052;-45
2024/01/08 10:55:23;;;;;;;1.02;0.63;;;;;;;2.46;67.32;102013.25;5000586;28;20050;-46
2024/01/08 10:57:56;;;;;;;2.90;0.75;;;;;;;2.46;66.90;102009.00;5014438;28;20582;-46
2024/01/08 11:00:24;;;;;;;2.25;0.73;;;;;;;2.46;66.53;102016.69;5002767;28;20054;-49
2024/01/08 11:02:52;;;;;;;2.78;1.15;;;;;;;2.44;66.86;102010.59;5010619;28;20050;-50
2024/01/08 11:05:21;;;;;;;2.58;0.60;;;;;;;2.47;67.50;102015.91;5010189;28;20064;-48
2024/01/08 11:07:50;;;;;;;2.72;0.77;;;;;;;2.47;66.62;102007.34;5008498;28;20116;-47
2024/01/08 11:10:18;;;;;;;3.38;0.85;;;;;;;2.46;66.66;102003.88;5001283;28;20058;-52
2024/01/08 11:13:00;;;;;;;0.77;0.40;;;;;;;2.40;66.17;102006.09;5000643;28;20751;-52
2024/01/08 11:15:28;;;;;;;3.00;0.90;;;;;;;2.39;66.53;101994.06;5003296;28;20061;-50
2024/01/08 11:17:58;;;;;;;1.48;0.70;;;;;;;2.44;66.48;101996.13;5003545;28;20486;-47
2024/01/08 11:20:46;;;;;;;1.13;0.68;;;;;;;2.40;65.82;101983.06;5005100;28;20046;-45
2024/01/08 11:23:41;;;;;;;4.90;1.02;;;;;;;2.39;66.09;101982.16;4999544;28;20056;-51
2024/01/08 11:26:26;;;;;;;3.85;1.00;;;;;;;2.47;66.80;101985.22;4993930;28;20129;-45
2024/01/08 11:29:03;;;;;;;2.20;1.10;;;;;;;2.48;66.98;101974.19;5003792;28;20137;-46
2024/01/08 11:34:57;;;;;;;5.00;1.83;;;;;;;2.49;66.74;101973.41;5050398;27;20401;-47
2024/01/08 11:37:42;;;;;;;6.38;2.08;;;;;;;2.55;66.56;101968.66;5033016;28;20060;-47
2024/01/08 11:40:18;;;;;;;5.32;2.00;;;;;;;2.54;67.46;101959.19;5034272;28;20045;-50